createdAt,value
2019-04-04T00:01:47.810Z,110.30
2019-04-04T00:04:16.385Z,108.63
2019-04-04T00:06:45.897Z,111.57
2019-04-04T00:09:15.904Z,104.67
2019-04-04T00:11:45.595Z,109.33
2019-04-04T00:14:15.830Z,110.77
2019-04-04T00:16:46.737Z,112.13
2019-04-04T00:19:17.192Z,110.63
2019-04-04T00:21:46.626Z,113.73
2019-04-04T00:24:16.075Z,106.20
2019-04-04T00:26:45.433Z,111.93
2019-04-04T00:29:17.162Z,113.30
2019-04-04T00:31:49.499Z,115.50
2019-04-04T00:34:19.332Z,109.63
2019-04-04T00:36:51.694Z,107.10
2019-04-04T00:39:21.031Z,108.37
2019-04-04T00:41:50.405Z,114.60
2019-04-04T00:44:21.032Z,107.17
2019-04-04T00:46:50.969Z,106.90
2019-04-04T00:49:20.804Z,107.77
2019-04-04T00:51:50.602Z,105.57
2019-04-04T00:54:19.906Z,106.33
2019-04-04T00:56:49.367Z,106.20
2019-04-04T00:59:18.654Z,106.70
2019-04-04T01:01:48.429Z,107.23
2019-04-04T01:04:19.655Z,106.77
2019-04-04T01:06:48.912Z,106.43
2019-04-04T01:09:20.247Z,103.17
2019-04-04T01:11:51.779Z,105.37
2019-04-04T01:14:21.740Z,106.20
2019-04-04T01:16:51.140Z,104.60
2019-04-04T01:19:20.775Z,105.93
2019-04-04T01:21:53.097Z,110.73
2019-04-04T01:24:22.155Z,106.90
2019-04-04T01:26:51.487Z,106.60
2019-04-04T01:29:20.861Z,107.53
2019-04-04T01:31:50.194Z,109.43
2019-04-04T01:34:20.912Z,108.03
2019-04-04T01:36:50.791Z,117.93
2019-04-04T01:39:20.157Z,111.10
2019-04-04T01:41:49.467Z,119.53
2019-04-04T01:44:18.840Z,118.87
2019-04-04T01:46:48.199Z,118.40
2019-04-04T01:49:19.118Z,116.03
2019-04-04T01:51:48.718Z,114.90
2019-04-04T01:54:18.431Z,119.93
2019-04-04T01:56:47.893Z,119.30
2019-04-04T01:59:17.338Z,120.13
2019-04-04T02:01:46.927Z,128.10
2019-04-04T02:04:16.968Z,127.97
2019-04-04T02:06:46.340Z,138.77
2019-04-04T02:09:15.799Z,138.90
2019-04-04T02:11:45.326Z,142.80
2019-04-04T02:14:14.743Z,140.17
2019-04-04T02:16:45.608Z,134.53
2019-04-04T02:19:15.154Z,133.47
2019-04-04T02:21:44.696Z,133.67
2019-04-04T02:24:14.187Z,129.85
2019-04-04T02:26:43.614Z,129.40
2019-04-04T02:29:12.964Z,154.40
2019-04-04T02:31:45.953Z,130.87
2019-04-04T02:34:15.439Z,124.27
2019-04-04T02:36:48.868Z,132.47
2019-04-04T02:39:18.607Z,125.75
2019-04-04T02:41:49.172Z,128.05
2019-04-04T02:44:18.877Z,133.05
2019-04-04T02:46:48.225Z,130.35
2019-04-04T02:49:17.706Z,127.92
2019-04-04T02:51:47.082Z,129.82
2019-04-04T02:54:16.552Z,124.05
2019-04-04T02:56:45.922Z,124.53
2019-04-04T02:59:19.996Z,127.17
2019-04-04T03:01:46.516Z,125.45
2019-04-04T03:04:15.897Z,124.85
2019-04-04T03:06:45.296Z,127.95
2019-04-04T03:09:14.862Z,127.30
2019-04-04T03:11:44.914Z,127.80
2019-04-04T03:14:17.954Z,129.32
2019-04-04T03:16:47.566Z,125.90
2019-04-04T03:19:16.840Z,130.00
2019-04-04T03:21:46.408Z,125.95
2019-04-04T03:24:16.030Z,128.12
2019-04-04T03:26:45.505Z,126.70
2019-04-04T03:29:14.941Z,127.75
2019-04-04T03:31:44.307Z,126.90
2019-04-04T03:34:13.735Z,129.12
2019-04-04T03:36:43.147Z,125.12
2019-04-04T03:39:12.608Z,127.35
2019-04-04T03:41:41.958Z,125.33
2019-04-04T03:44:11.406Z,129.38
2019-04-04T03:46:40.920Z,124.90
2019-04-04T03:49:10.268Z,123.18
2019-04-04T03:51:39.607Z,124.87
2019-04-04T03:54:13.308Z,125.15
2019-04-04T03:56:42.653Z,129.23
2019-04-04T03:59:12.041Z,124.92
2019-04-04T04:01:45.480Z,125.38
2019-04-04T04:04:12.549Z,125.53
2019-04-04T04:06:43.084Z,128.50
2019-04-04T04:09:12.899Z,128.97
2019-04-04T04:11:42.192Z,123.87
2019-04-04T04:14:11.783Z,129.53
2019-04-04T04:16:41.352Z,129.00
2019-04-04T04:19:10.793Z,124.65
2019-04-04T04:21:42.829Z,126.97
2019-04-04T04:24:11.281Z,125.70
2019-04-04T04:26:42.014Z,123.02
2019-04-04T04:29:11.968Z,122.28
2019-04-04T04:31:41.350Z,123.60
2019-04-04T04:34:10.699Z,120.05
2019-04-04T04:36:40.205Z,124.80
2019-04-04T04:39:09.592Z,128.12
2019-04-04T04:41:38.933Z,127.87
2019-04-04T04:44:08.368Z,132.85
2019-04-04T04:46:38.657Z,122.35
2019-04-04T04:49:08.052Z,125.97
2019-04-04T04:51:37.439Z,122.80
2019-04-04T04:54:06.847Z,122.02
2019-04-04T04:56:36.207Z,126.22
2019-04-04T04:59:06.620Z,126.47
2019-04-04T05:01:36.492Z,126.55
2019-04-04T05:04:05.866Z,125.67
2019-04-04T05:06:35.739Z,126.65
2019-04-04T05:09:07.041Z,122.62
2019-04-04T05:11:36.743Z,125.35
2019-04-04T05:14:06.631Z,127.97
2019-04-04T05:16:37.946Z,126.53
2019-04-04T05:19:07.239Z,126.45
2019-04-04T05:21:36.627Z,130.65
2019-04-04T05:24:06.097Z,130.30
2019-04-04T05:26:38.352Z,126.12
2019-04-04T05:29:06.725Z,132.43
2019-04-04T05:31:36.246Z,124.72
2019-04-04T05:34:05.606Z,128.97
2019-04-04T05:36:36.778Z,132.15
2019-04-04T05:39:08.058Z,126.07
2019-04-04T05:41:37.934Z,127.75
2019-04-04T05:44:10.055Z,128.80
2019-04-04T05:46:38.415Z,129.95
2019-04-04T05:49:08.392Z,125.95
2019-04-04T05:51:38.164Z,125.02
2019-04-04T05:54:08.409Z,125.25
2019-04-04T05:56:38.109Z,126.82
2019-04-04T05:59:07.563Z,125.62
2019-04-04T06:01:36.961Z,126.92
2019-04-04T06:04:06.846Z,130.00
2019-04-04T06:06:36.400Z,129.00
2019-04-04T06:09:08.032Z,134.82
2019-04-04T06:11:37.446Z,129.50
2019-04-04T06:14:06.821Z,128.75
2019-04-04T06:16:36.658Z,126.22
2019-04-04T06:19:06.022Z,128.62
2019-04-04T06:21:35.405Z,127.25
2019-04-04T06:24:05.082Z,128.70
2019-04-04T06:26:36.067Z,133.32
2019-04-04T06:29:05.883Z,126.58
2019-04-04T06:31:35.555Z,129.40
2019-04-04T06:34:09.828Z,126.38
2019-04-04T06:36:37.347Z,131.93
2019-04-04T06:39:08.017Z,132.80
2019-04-04T06:41:39.548Z,131.43
2019-04-04T06:44:10.966Z,127.47
2019-04-04T06:46:41.129Z,127.67
2019-04-04T06:49:10.503Z,130.87
2019-04-04T06:51:39.922Z,129.65
2019-04-04T06:54:09.338Z,132.22
2019-04-04T06:56:38.723Z,127.20
2019-04-04T06:59:11.217Z,124.22
2019-04-04T07:01:39.432Z,128.10
2019-04-04T07:04:08.939Z,132.27
2019-04-04T07:06:41.667Z,126.07
2019-04-04T07:09:09.451Z,131.85
2019-04-04T07:11:38.814Z,129.70
2019-04-04T07:14:08.292Z,125.38
2019-04-04T07:16:37.929Z,129.23
2019-04-04T07:19:08.096Z,130.43
2019-04-04T07:21:38.114Z,134.37
2019-04-04T07:24:07.638Z,132.57
2019-04-04T07:26:37.028Z,129.00
2019-04-04T07:29:06.473Z,129.55
2019-04-04T07:31:38.387Z,136.45
2019-04-04T07:34:06.966Z,133.50
2019-04-04T07:36:36.414Z,130.57
2019-04-04T07:39:07.306Z,133.03
2019-04-04T07:41:40.042Z,133.85
2019-04-04T07:44:07.824Z,135.70
2019-04-04T07:46:40.919Z,135.75
2019-04-04T07:49:08.382Z,134.67
2019-04-04T07:51:37.785Z,142.93
2019-04-04T07:54:07.931Z,134.45
2019-04-04T07:56:37.527Z,147.55
2019-04-04T07:59:06.928Z,138.68
2019-04-04T08:01:36.349Z,141.85
2019-04-04T08:04:06.716Z,134.90
2019-04-04T08:06:36.431Z,139.22
2019-04-04T08:09:07.417Z,139.20
2019-04-04T08:11:36.813Z,136.62
2019-04-04T08:14:06.336Z,140.80
2019-04-04T08:16:35.712Z,144.70
2019-04-04T08:19:05.067Z,133.75
2019-04-04T08:21:34.542Z,134.25
2019-04-04T08:24:03.935Z,132.32
2019-04-04T08:26:33.365Z,137.15
2019-04-04T08:29:02.758Z,135.97
2019-04-04T08:31:32.109Z,140.12
2019-04-04T08:34:01.512Z,145.32
2019-04-04T08:36:30.847Z,138.65
2019-04-04T08:39:00.278Z,138.97
2019-04-04T08:41:30.089Z,139.85
2019-04-04T08:43:59.565Z,141.75
2019-04-04T08:46:29.027Z,136.80
2019-04-04T08:48:58.504Z,136.88
2019-04-04T08:51:27.884Z,145.68
2019-04-04T08:53:57.282Z,138.52
2019-04-04T08:56:26.665Z,136.15
2019-04-04T08:58:56.052Z,138.88
2019-04-04T09:01:25.470Z,137.45
2019-04-04T09:03:54.851Z,137.68
2019-04-04T09:06:24.329Z,135.43
2019-04-04T09:08:53.835Z,134.12
2019-04-04T09:11:23.336Z,143.20
2019-04-04T09:13:52.728Z,134.80
2019-04-04T09:16:22.372Z,137.62
2019-04-04T09:18:51.838Z,135.15
2019-04-04T09:21:21.231Z,141.68
2019-04-04T09:23:50.576Z,133.12
2019-04-04T09:26:20.459Z,148.75
2019-04-04T09:28:50.028Z,137.37
2019-04-04T09:31:19.847Z,138.15
2019-04-04T09:33:49.378Z,134.37
2019-04-04T09:36:18.812Z,139.22
2019-04-04T09:38:48.193Z,137.80
2019-04-04T09:41:17.626Z,138.28
2019-04-04T09:43:47.032Z,146.75
2019-04-04T09:46:16.504Z,147.65
2019-04-04T09:48:45.887Z,142.70
2019-04-04T09:51:15.304Z,154.32
2019-04-04T09:53:52.846Z,138.60
2019-04-04T09:56:15.901Z,137.10
2019-04-04T09:58:45.318Z,153.02
2019-04-04T10:01:14.746Z,146.35
2019-04-04T10:03:44.195Z,149.53
2019-04-04T10:06:13.689Z,143.52
2019-04-04T10:08:43.154Z,143.90
2019-04-04T10:11:12.575Z,143.02
2019-04-04T10:13:42.000Z,134.90
2019-04-04T10:16:11.496Z,145.82
2019-04-04T10:18:40.932Z,140.12
2019-04-04T10:21:12.237Z,139.30
2019-04-04T10:23:41.571Z,138.35
2019-04-04T10:26:11.851Z,139.15
2019-04-04T10:28:43.461Z,141.00
2019-04-04T10:31:12.959Z,141.32
2019-04-04T10:33:42.558Z,145.07
2019-04-04T10:36:12.130Z,138.92
2019-04-04T10:38:41.509Z,138.72
2019-04-04T10:41:11.194Z,135.88
2019-04-04T10:43:40.580Z,139.25
2019-04-04T10:46:10.129Z,157.32
2019-04-04T10:48:39.666Z,141.43
2019-04-04T10:51:09.164Z,134.65
2019-04-04T10:53:38.726Z,139.65
2019-04-04T10:56:08.326Z,139.37
2019-04-04T10:58:38.255Z,145.90
2019-04-04T11:01:08.299Z,145.38
2019-04-04T11:03:37.903Z,141.70
2019-04-04T11:06:07.535Z,144.85
2019-04-04T11:08:37.080Z,149.87
2019-04-04T11:11:06.603Z,144.07
2019-04-04T11:13:36.107Z,148.30
2019-04-04T11:16:05.994Z,140.95
2019-04-04T11:18:35.555Z,142.30
2019-04-04T11:21:05.007Z,143.32
2019-04-04T11:23:34.497Z,141.85
2019-04-04T11:26:03.968Z,145.87
2019-04-04T11:28:33.410Z,149.57
2019-04-04T11:31:03.357Z,148.28
2019-04-04T11:33:32.712Z,144.00
2019-04-04T11:36:02.091Z,150.32
2019-04-04T11:38:31.562Z,149.38
2019-04-04T11:41:01.051Z,151.87
2019-04-04T11:43:30.985Z,147.75
2019-04-04T11:46:00.424Z,148.45
2019-04-04T11:48:30.937Z,150.72
2019-04-04T11:51:00.280Z,150.18
2019-04-04T11:53:30.833Z,147.32
2019-04-04T11:56:00.698Z,161.45
2019-04-04T11:58:30.202Z,143.32
2019-04-04T12:01:01.458Z,150.20
2019-04-04T12:03:30.947Z,145.75
2019-04-04T12:06:00.415Z,146.53
2019-04-04T12:08:30.057Z,142.22
2019-04-04T12:10:59.484Z,144.57
2019-04-04T12:13:28.987Z,144.07
2019-04-04T12:15:58.380Z,143.52
2019-04-04T12:18:27.919Z,143.93
2019-04-04T12:20:57.378Z,146.77
2019-04-04T12:23:26.865Z,146.72
2019-04-04T12:25:56.502Z,148.65
2019-04-04T12:28:26.033Z,147.02
2019-04-04T12:30:55.577Z,139.62
2019-04-04T12:33:25.015Z,145.65
2019-04-04T12:35:54.396Z,146.72
2019-04-04T12:38:23.859Z,143.85
2019-04-04T12:40:53.279Z,149.02
2019-04-04T12:43:22.749Z,142.43
2019-04-04T12:45:52.241Z,144.28
2019-04-04T12:48:21.713Z,149.53
2019-04-04T12:50:51.218Z,150.57
2019-04-04T12:53:20.624Z,149.05
2019-04-04T12:55:50.272Z,148.02
2019-04-04T12:58:19.959Z,147.98
2019-04-04T13:00:49.462Z,146.18
2019-04-04T13:03:22.164Z,139.37
2019-04-04T13:05:50.469Z,147.25
2019-04-04T13:08:22.136Z,142.20
2019-04-04T13:10:51.726Z,141.10
2019-04-04T13:13:21.170Z,147.62
2019-04-04T13:15:50.705Z,144.10
2019-04-04T13:18:20.278Z,143.15
2019-04-04T13:20:50.133Z,152.85
2019-04-04T13:23:19.629Z,142.80
2019-04-04T13:25:49.044Z,140.95
2019-04-04T13:28:18.533Z,139.35
2019-04-04T13:30:48.090Z,138.97
2019-04-04T13:33:17.632Z,137.80
2019-04-04T13:35:47.199Z,143.45
2019-04-04T13:38:16.821Z,136.50
2019-04-04T13:40:46.280Z,133.70
2019-04-04T13:43:16.061Z,136.50
2019-04-04T13:45:45.510Z,134.95
2019-04-04T13:48:15.051Z,138.55
2019-04-04T13:50:44.496Z,136.57
2019-04-04T13:53:14.309Z,137.90
2019-04-04T13:55:43.842Z,134.20
2019-04-04T13:58:13.320Z,139.95
2019-04-04T14:00:42.851Z,141.68
2019-04-04T14:03:12.371Z,133.45
2019-04-04T14:05:41.770Z,134.05
2019-04-04T14:08:14.204Z,139.37
2019-04-04T14:10:42.499Z,133.72
2019-04-04T14:13:14.490Z,137.05
2019-04-04T14:15:44.689Z,135.45
2019-04-04T14:18:23.620Z,133.22
2019-04-04T14:21:03.522Z,143.13
2019-04-04T14:23:27.820Z,138.80
2019-04-04T14:25:59.570Z,138.52
2019-04-04T14:28:30.409Z,142.40
2019-04-04T14:31:00.013Z,137.10
2019-04-04T14:33:29.528Z,140.68
2019-04-04T14:35:59.265Z,134.82
2019-04-04T14:38:28.858Z,138.00
2019-04-04T14:41:10.624Z,142.90
2019-04-04T14:43:30.470Z,133.97
2019-04-04T14:46:00.048Z,135.68
2019-04-04T14:48:29.587Z,132.15
2019-04-04T14:50:59.131Z,139.82
2019-04-04T14:53:28.633Z,137.65
2019-04-04T14:55:58.636Z,138.28
2019-04-04T14:58:30.592Z,131.37
2019-04-04T15:00:59.523Z,134.75
2019-04-04T15:03:29.080Z,134.45
2019-04-04T15:05:58.706Z,130.30
2019-04-04T15:08:28.320Z,131.70
2019-04-04T15:10:57.979Z,136.88
2019-04-04T15:13:27.503Z,142.18
2019-04-04T15:16:15.641Z,137.80
2019-04-04T15:18:45.738Z,135.45
2019-04-04T15:21:15.503Z,134.43
2019-04-04T15:23:45.105Z,136.00
2019-04-04T15:26:15.246Z,132.80
2019-04-04T15:28:44.695Z,138.52
2019-04-04T15:31:14.390Z,134.78
2019-04-04T15:33:44.067Z,133.10
2019-04-04T15:36:13.748Z,128.20
2019-04-04T15:38:44.487Z,129.93
2019-04-04T15:41:14.164Z,135.12
2019-04-04T15:43:43.715Z,134.90
2019-04-04T15:46:13.403Z,138.22
2019-04-04T15:48:42.963Z,131.10
2019-04-04T15:51:12.565Z,133.25
2019-04-04T15:53:42.262Z,136.22
2019-04-04T15:56:12.072Z,144.30
2019-04-04T15:58:42.592Z,135.93
2019-04-04T16:01:12.315Z,138.20
2019-04-04T16:03:41.946Z,137.75
2019-04-04T16:06:11.447Z,140.55
2019-04-04T16:08:40.934Z,135.05
2019-04-04T16:11:11.181Z,135.75
2019-04-04T16:13:40.815Z,133.35
2019-04-04T16:16:10.407Z,141.12
2019-04-04T16:18:39.970Z,144.93
2019-04-04T16:21:10.688Z,137.20
2019-04-04T16:23:40.306Z,138.32
2019-04-04T16:26:12.374Z,139.37
2019-04-04T16:28:42.011Z,138.00
2019-04-04T16:31:11.754Z,139.18
2019-04-04T16:33:41.334Z,137.62
2019-04-04T16:36:11.024Z,138.85
2019-04-04T16:38:40.766Z,136.90
2019-04-04T16:41:10.963Z,138.18
2019-04-04T16:43:40.576Z,135.90
2019-04-04T16:46:10.068Z,141.40
2019-04-04T16:48:40.007Z,133.07
2019-04-04T16:51:10.010Z,134.27
2019-04-04T16:53:39.749Z,133.52
2019-04-04T16:56:09.353Z,133.45
2019-04-04T16:58:38.989Z,134.78
2019-04-04T17:01:08.586Z,130.18
2019-04-04T17:03:38.983Z,133.35
2019-04-04T17:06:09.674Z,130.03
2019-04-04T17:08:39.606Z,129.63
2019-04-04T17:11:09.274Z,133.40
2019-04-04T17:13:38.982Z,136.47
2019-04-04T17:16:11.471Z,128.57
2019-04-04T17:18:41.176Z,129.60
2019-04-04T17:21:10.936Z,133.15
2019-04-04T17:23:41.020Z,134.65
2019-04-04T17:26:10.653Z,128.02
2019-04-04T17:28:40.337Z,129.95
2019-04-04T17:31:10.286Z,131.63
2019-04-04T17:33:41.129Z,134.03
2019-04-04T17:36:13.654Z,133.55
2019-04-04T17:38:44.268Z,132.12
2019-04-04T17:41:14.430Z,129.82
2019-04-04T17:43:44.111Z,131.80
2019-04-04T17:46:14.702Z,133.60
2019-04-04T17:48:44.367Z,131.03
2019-04-04T17:51:13.898Z,135.52
2019-04-04T17:53:43.659Z,137.47
2019-04-04T17:56:13.463Z,132.07
2019-04-04T17:58:43.341Z,130.65
2019-04-04T18:01:13.691Z,133.10
2019-04-04T18:03:43.187Z,138.03
2019-04-04T18:06:12.862Z,131.78
2019-04-04T18:08:42.488Z,130.43
2019-04-04T18:11:12.385Z,135.30
2019-04-04T18:13:42.488Z,136.22
2019-04-04T18:16:12.412Z,135.65
2019-04-04T18:18:42.647Z,140.73
2019-04-04T18:21:13.711Z,137.22
2019-04-04T18:23:45.241Z,138.03
2019-04-04T18:26:15.386Z,130.87
2019-04-04T18:28:45.401Z,132.30
2019-04-04T18:31:15.612Z,135.28
2019-04-04T18:33:45.333Z,131.40
2019-04-04T18:36:15.187Z,132.10
2019-04-04T18:38:45.959Z,136.47
2019-04-04T18:41:18.337Z,132.10
2019-04-04T18:43:53.683Z,138.52
2019-04-04T18:46:25.968Z,134.45
2019-04-04T18:48:59.966Z,131.82
2019-04-04T18:51:34.339Z,138.22
2019-04-04T18:54:05.938Z,134.67
2019-04-04T18:56:40.119Z,134.95
2019-04-04T18:59:10.044Z,129.20
2019-04-04T19:01:41.090Z,135.95
2019-04-04T19:04:10.798Z,136.03
2019-04-04T19:06:40.657Z,133.55
2019-04-04T19:09:15.055Z,132.85
2019-04-04T19:11:46.800Z,137.32
2019-04-04T19:14:17.365Z,137.90
2019-04-04T19:16:48.896Z,133.20
2019-04-04T19:19:19.628Z,135.03
2019-04-04T19:21:50.258Z,132.27
2019-04-04T19:24:21.243Z,134.03
2019-04-04T19:26:51.172Z,130.27
2019-04-04T19:29:21.481Z,136.32
2019-04-04T19:31:52.586Z,134.55
2019-04-04T19:34:22.414Z,135.97
2019-04-04T19:36:54.018Z,133.82
2019-04-04T19:39:25.688Z,135.35
2019-04-04T19:41:55.453Z,130.25
2019-04-04T19:44:28.152Z,130.57
2019-04-04T19:46:59.494Z,129.00
2019-04-04T19:49:31.153Z,132.75
2019-04-04T19:52:03.652Z,135.57
2019-04-04T19:54:34.286Z,136.95
2019-04-04T19:57:05.066Z,135.97
2019-04-04T19:59:36.491Z,135.07
2019-04-04T20:02:08.968Z,132.65
2019-04-04T20:04:40.762Z,134.20
2019-04-04T20:07:11.311Z,133.60
2019-04-04T20:09:41.381Z,136.43
2019-04-04T20:12:11.727Z,136.95
2019-04-04T20:14:42.023Z,137.00
2019-04-04T20:17:13.199Z,138.15
2019-04-04T20:19:43.720Z,137.30
2019-04-04T20:22:13.965Z,135.10
2019-04-04T20:24:43.986Z,137.05
2019-04-04T20:27:13.740Z,137.75
2019-04-04T20:29:45.520Z,132.37
2019-04-04T20:32:15.201Z,135.80
2019-04-04T20:34:44.861Z,135.55
2019-04-04T20:37:14.551Z,132.65
2019-04-04T20:39:44.226Z,134.78
2019-04-04T20:42:13.794Z,160.70
2019-04-04T20:44:43.357Z,134.07
2019-04-04T20:47:12.962Z,137.35
2019-04-04T20:49:42.599Z,134.57
2019-04-04T20:52:12.254Z,137.43
2019-04-04T20:54:42.236Z,134.43
2019-04-04T20:57:11.797Z,133.45
2019-04-04T20:59:41.291Z,132.72
2019-04-04T21:02:11.738Z,138.50
2019-04-04T21:04:41.277Z,134.20
2019-04-04T21:07:10.871Z,136.22
2019-04-04T21:09:40.280Z,136.88
2019-04-04T21:12:11.278Z,137.12
2019-04-04T21:14:41.039Z,134.35
2019-04-04T21:17:10.865Z,135.25
2019-04-04T21:19:40.349Z,138.70
2019-04-04T21:22:09.828Z,139.82
2019-04-04T21:24:39.363Z,134.05
2019-04-04T21:27:08.864Z,133.95
2019-04-04T21:29:38.303Z,140.28
2019-04-04T21:32:08.159Z,132.22
2019-04-04T21:34:37.619Z,138.00
2019-04-04T21:37:07.075Z,138.88
2019-04-04T21:39:37.483Z,133.07
2019-04-04T21:42:06.964Z,132.22
2019-04-04T21:44:36.473Z,134.12
2019-04-04T21:47:06.004Z,134.37
2019-04-04T21:49:35.439Z,133.97
2019-04-04T21:52:04.976Z,135.45
2019-04-04T21:54:34.464Z,136.37
2019-04-04T21:57:04.037Z,134.18
2019-04-04T21:59:33.599Z,132.27
2019-04-04T22:02:03.272Z,133.75
2019-04-04T22:04:32.763Z,138.18
2019-04-04T22:07:02.289Z,131.57
2019-04-04T22:09:33.762Z,141.80
2019-04-04T22:12:02.988Z,137.88
2019-04-04T22:14:32.350Z,138.50
2019-04-04T22:17:01.747Z,134.25
2019-04-04T22:19:31.210Z,138.85
2019-04-04T22:22:00.585Z,138.60
2019-04-04T22:24:30.108Z,134.27
2019-04-04T22:26:59.556Z,135.15
2019-04-04T22:29:29.155Z,138.12
2019-04-04T22:31:58.572Z,137.80
2019-04-04T22:34:27.916Z,136.65
2019-04-04T22:36:57.303Z,136.90
2019-04-04T22:39:26.714Z,134.75
2019-04-04T22:41:56.140Z,134.25
2019-04-04T22:44:34.667Z,132.30
2019-04-04T22:46:56.835Z,133.67
2019-04-04T22:49:26.193Z,134.20
2019-04-04T22:51:55.532Z,134.63
2019-04-04T22:54:25.409Z,133.18
2019-04-04T22:56:54.903Z,138.68
2019-04-04T22:59:24.266Z,133.93
2019-04-04T23:01:53.725Z,134.35
2019-04-04T23:04:23.134Z,135.93
2019-04-04T23:06:54.295Z,135.97
2019-04-04T23:09:23.832Z,136.82
2019-04-04T23:11:55.417Z,134.27
2019-04-04T23:14:24.556Z,133.10
2019-04-04T23:16:53.875Z,134.32
2019-04-04T23:19:23.520Z,132.60
2019-04-04T23:21:53.066Z,137.20
2019-04-04T23:24:22.436Z,134.03
2019-04-04T23:26:51.876Z,143.22
2019-04-04T23:29:21.250Z,137.15
2019-04-04T23:31:50.816Z,135.80
2019-04-04T23:34:20.308Z,134.82
2019-04-04T23:36:49.762Z,137.97
2019-04-04T23:39:19.142Z,136.62
2019-04-04T23:41:48.535Z,133.67
2019-04-04T23:44:17.891Z,133.95
2019-04-04T23:46:48.553Z,136.45
2019-04-04T23:49:18.021Z,135.60
2019-04-04T23:51:47.471Z,140.12
2019-04-04T23:54:16.979Z,139.37
2019-04-04T23:56:46.342Z,142.57
2019-04-04T23:59:15.847Z,140.43
